Terminal Aerodrome Forecast
Issued by NWS Pendleton, OR

Home | Current Version | Previous Version | Text Only | Print | Product List | Glossary On
Versions: 1 2 3 4 5 6 7 8 9 10 11 12 13 14 15 16
144
FTUS46 KPDT 092340
TAFPDT
TAF
KPDT 092340Z 1000/1024 31006KT P6SM SKC
     FM100300 15005KT P6SM SKC
     FM100800 12004KT P6SM SCT250
     FM101400 12003KT P6SM BKN180=

USA.gov is the U.S. government's official web portal to all federal, state and local government web resources and services.